< Typhoon 200406 2004 Season Typhoon 200408 >
Typhoon 200407 (MINDULLE)
General InformationTrack Information on Google MapsDetailed Wind InformationAccess Analytics MapList of All Images || NewsDisaster Info.WeblogTrackbackTyphoon FrontResourceGoogle EarthGE AnimationAtom FeedGeoJSON
Detalied Best Track (Time Zone = UTC)
Year Month Day Hour Lat. Long. Pressure (hPa) Wind (kt) Class Image Chart
2004 6 21 18 14.6 146.0 1004 0 2 Image Chart
2004 6 22 00 14.5 145.5 1004 0 2 Image Chart
2004 6 22 06 14.5 145.0 1002 0 2 Image Chart
2004 6 22 12 15.3 144.5 1002 0 2 Image Chart
2004 6 22 18 16.0 143.8 1002 0 2 Image Chart
2004 6 23 00 16.3 143.0 1000 0 2 Image Chart
2004 6 23 06 16.7 142.6 998 35 3 Image Chart
2004 6 23 12 17.0 142.2 996 35 3 Image Chart
2004 6 23 18 16.9 141.0 990 45 3 Image Chart
2004 6 24 00 16.4 139.8 985 50 4 Image Chart
2004 6 24 06 16.1 138.8 980 55 4 Image Chart
2004 6 24 12 15.8 137.5 980 55 4 Image Chart
2004 6 24 18 15.4 136.2 980 55 4 Image Chart
2004 6 25 00 15.0 134.6 980 55 4 Image Chart
2004 6 25 06 14.8 133.6 980 55 4 Image Chart
2004 6 25 12 14.7 132.6 980 55 4 Image Chart
2004 6 25 18 14.7 131.8 980 55 4 Image Chart
2004 6 26 00 14.6 131.1 980 55 4 Image Chart
2004 6 26 06 14.8 130.5 980 55 4 Image Chart
2004 6 26 12 15.2 130.0 980 55 4 Image Chart
2004 6 26 18 15.7 129.6 980 55 4 Image Chart
2004 6 27 00 16.2 128.8 980 55 4 Image Chart
2004 6 27 06 16.9 127.8 975 60 4 Image Chart
2004 6 27 12 17.5 127.1 965 70 5 Image Chart
2004 6 27 18 17.8 126.5 955 80 5 Image Chart
2004 6 28 00 18.1 126.0 950 85 5 Image Chart
2004 6 28 06 18.4 125.6 950 85 5 Image Chart
2004 6 28 12 18.6 125.0 950 85 5 Image Chart
2004 6 28 18 18.8 124.6 945 90 5 Image Chart
2004 6 29 00 18.8 124.1 940 95 5 Image Chart
2004 6 29 06 18.8 123.6 940 95 5 Image Chart
2004 6 29 12 18.9 123.0 940 95 5 Image Chart
2004 6 29 18 19.0 122.6 945 90 5 Image Chart
2004 6 30 00 19.1 122.2 950 85 5 Image Chart
2004 6 30 06 19.2 122.0 960 75 5 Image Chart
2004 6 30 12 19.6 122.0 965 70 5 Image Chart
2004 6 30 18 20.8 122.0 970 65 5 Image Chart
2004 7 1 00 21.6 121.8 975 60 4 Image Chart
2004 7 1 06 22.3 121.4 975 60 4 Image Chart
2004 7 1 12 23.2 121.1 975 60 4 Image Chart
2004 7 1 18 23.9 120.5 980 55 4 Image Chart
2004 7 2 00 24.8 120.3 980 55 4 Image Chart
2004 7 2 06 25.7 120.4 980 55 4 Image Chart
2004 7 2 12 26.3 120.6 985 50 4 Image Chart
2004 7 2 18 26.8 120.8 985 50 4 Image Chart
2004 7 3 00 27.9 121.2 985 45 3 Image Chart
2004 7 3 06 29.3 121.9 985 45 3 Image Chart
2004 7 3 12 30.6 122.7 985 45 3 Image Chart
2004 7 3 18 32.1 123.8 985 45 3 Image Chart
2004 7 4 00 33.1 124.5 984 0 6 Image Chart
2004 7 4 06 34.6 125.1 984 0 6 Image Chart
2004 7 4 12 36.3 126.2 986 0 6 Image Chart
2004 7 4 18 38.0 127.8 988 0 6 Image Chart
2004 7 5 00 39.2 129.4 992 0 6 Image Chart
2004 7 5 06 40.3 130.9 994 0 6 Image Chart
2004 7 5 12 42.1 132.8 996 0 6 Image Chart
2004 7 5 18 44.3 133.4 1000 0 6 Image Chart
Japan Meteorological Agency Best Track Data | Correction Date : 2006-01-18
< Typhoon 200406 2004 Season Typhoon 200408 >

Help